Time;durP1;ratioP1;P1;durP2;ratioP2;P2;SDS_P1;SDS_P2;PMS_P1;PMS_P2;Temp;Humidity;BMP_temperature;BMP_pressure;BME280_temperature;BME280_humidity;BME280_pressure;Samples;Min_cycle;Max_cycle;Signal;HPM_P1;HPM_P2
2023/06/16 00:01:43;;;;;;;18.45;14.98;;;24.80;99.90;;;;;;5030346;28;20063;-60
2023/06/16 00:04:12;;;;;;;17.13;15.43;;;24.90;99.90;;;;;;5032445;28;20631;-58
2023/06/16 00:06:42;;;;;;;17.90;16.10;;;24.90;99.90;;;;;;5021809;28;20105;-59
2023/06/16 00:09:08;;;;;;;16.20;14.50;;;24.90;99.90;;;;;;5026396;28;20025;-59
2023/06/16 00:11:33;;;;;;;16.83;15.10;;;24.80;99.90;;;;;;5028163;28;20060;-59
2023/06/16 00:13:59;;;;;;;17.95;14.80;;;24.80;99.90;;;;;;5032743;28;20424;-59
2023/06/16 00:16:26;;;;;;;15.82;14.07;;;24.70;99.90;;;;;;5030387;28;20098;-59
2023/06/16 00:18:53;;;;;;;16.77;14.50;;;24.70;99.90;;;;;;5031812;28;20041;-60
2023/06/16 00:21:25;;;;;;;15.23;13.73;;;24.70;99.90;;;;;;5030844;28;20025;-59
2023/06/16 00:23:52;;;;;;;16.92;15.18;;;24.70;99.90;;;;;;5031902;28;20490;-59
2023/06/16 00:26:18;;;;;;;16.52;14.82;;;24.80;99.90;;;;;;5029710;28;20029;-59
2023/06/16 00:28:44;;;;;;;16.08;14.50;;;24.70;99.90;;;;;;5036324;28;20453;-59
2023/06/16 00:31:10;;;;;;;16.13;14.48;;;24.70;99.90;;;;;;5028620;28;20119;-59
2023/06/16 00:33:35;;;;;;;16.33;14.43;;;24.60;99.90;;;;;;5031833;28;20033;-59
2023/06/16 00:36:01;;;;;;;16.63;15.00;;;24.60;99.90;;;;;;5019904;28;20034;-59
2023/06/16 00:38:30;;;;;;;16.52;14.82;;;24.60;99.90;;;;;;5031789;28;20475;-59
2023/06/16 00:40:56;;;;;;;15.93;14.23;;;24.70;99.90;;;;;;5031098;28;20072;-59
2023/06/16 00:43:21;;;;;;;16.05;14.55;;;24.60;99.90;;;;;;5030999;28;20029;-60
2023/06/16 00:45:51;;;;;;;15.40;13.95;;;24.50;99.90;;;;;;5030473;28;20401;-59
2023/06/16 00:48:17;;;;;;;15.30;13.80;;;24.60;99.90;;;;;;5028982;28;20049;-59
2023/06/16 00:50:44;;;;;;;14.82;13.43;;;24.60;99.90;;;;;;5030480;28;20117;-59
2023/06/16 00:53:10;;;;;;;16.00;14.30;;;24.60;99.90;;;;;;5031454;28;20808;-60
2023/06/16 00:55:36;;;;;;;14.82;13.43;;;24.50;99.90;;;;;;5031031;28;20044;-60
2023/06/16 00:58:03;;;;;;;15.88;14.48;;;24.40;99.90;;;;;;5029924;28;20037;-59
2023/06/16 01:00:32;;;;;;;15.85;13.98;;;24.40;99.90;;;;;;5029164;28;20028;-59
2023/06/16 01:02:57;;;;;;;15.15;13.63;;;24.40;99.90;;;;;;5025596;28;20036;-59
2023/06/16 01:05:24;;;;;;;15.63;14.07;;;24.40;99.90;;;;;;5027469;28;20035;-59
2023/06/16 01:07:59;;;;;;;17.38;13.75;;;24.40;99.90;;;;;;5024872;28;20041;-59
2023/06/16 01:11:03;;;;;;;15.25;13.65;;;24.40;99.90;;;;;;5030082;28;20029;-59
2023/06/16 01:13:40;;;;;;;16.17;13.20;;;24.40;99.90;;;;;;5011587;28;20067;-59
2023/06/16 01:16:08;;;;;;;14.98;13.00;;;24.40;99.90;;;;;;5023076;28;20060;-59
2023/06/16 01:18:34;;;;;;;14.68;13.23;;;24.20;99.90;;;;;;5017678;28;20093;-59
2023/06/16 01:21:12;;;;;;;15.85;13.75;;;24.30;99.90;;;;;;5028233;28;20056;-59
2023/06/16 01:23:50;;;;;;;14.55;13.05;;;24.20;99.90;;;;;;5031246;28;20034;-59
2023/06/16 01:26:17;;;;;;;15.02;13.45;;;24.30;99.90;;;;;;5030506;28;20179;-59
2023/06/16 01:28:45;;;;;;;16.45;13.75;;;24.20;99.90;;;;;;5029361;28;20041;-60
2023/06/16 01:31:15;;;;;;;15.93;13.63;;;24.20;99.90;;;;;;5028597;28;20041;-59
2023/06/16 01:33:43;;;;;;;15.23;12.95;;;24.20;99.90;;;;;;5032234;28;20120;-59
2023/06/16 01:36:09;;;;;;;15.23;13.48;;;24.20;99.90;;;;;;5030154;28;20053;-59
2023/06/16 01:38:36;;;;;;;16.90;12.13;;;24.20;99.90;;;;;;5030863;28;20033;-59
2023/06/16 01:41:02;;;;;;;14.60;13.10;;;24.10;99.90;;;;;;5030542;28;20438;-59
2023/06/16 01:43:29;;;;;;;16.02;12.75;;;24.00;99.90;;;;;;5032587;28;20009;-59
2023/06/16 01:45:56;;;;;;;13.75;12.40;;;24.10;99.90;;;;;;5031741;28;20095;-59
2023/06/16 01:48:23;;;;;;;14.50;13.00;;;24.10;99.90;;;;;;5027005;28;20081;-59
2023/06/16 01:50:49;;;;;;;15.40;12.55;;;24.10;99.90;;;;;;5030841;28;20037;-59
2023/06/16 01:53:15;;;;;;;14.27;12.77;;;24.00;99.90;;;;;;5029509;28;20045;-59
2023/06/16 01:55:50;;;;;;;14.77;13.27;;;24.00;99.90;;;;;;5031696;28;20117;-59
2023/06/16 01:58:17;;;;;;;14.40;12.98;;;24.00;99.90;;;;;;5018736;28;20088;-59
2023/06/16 02:01:04;;;;;;;15.00;12.90;;;24.00;99.90;;;;;;5031211;28;20035;-59
2023/06/16 02:03:45;;;;;;;14.27;12.73;;;23.90;99.90;;;;;;5020063;28;20121;-59
2023/06/16 02:06:18;;;;;;;13.70;12.40;;;24.00;99.90;;;;;;5030800;28;20342;-59
2023/06/16 02:08:47;;;;;;;18.58;13.00;;;23.90;99.90;;;;;;5030368;28;20026;-59
2023/06/16 02:11:15;;;;;;;13.43;12.07;;;23.90;99.90;;;;;;5032099;28;20069;-59
2023/06/16 02:13:43;;;;;;;12.88;11.63;;;23.90;99.90;;;;;;5028989;28;20056;-59
2023/06/16 02:16:09;;;;;;;14.40;12.70;;;23.90;99.90;;;;;;5031369;28;20120;-59
2023/06/16 02:18:34;;;;;;;14.05;12.73;;;23.90;99.90;;;;;;5031150;28;20029;-59
2023/06/16 02:21:00;;;;;;;14.57;13.05;;;23.90;99.90;;;;;;5032319;28;20027;-59
2023/06/16 02:23:26;;;;;;;14.40;12.52;;;23.90;99.90;;;;;;5030503;28;20034;-59
2023/06/16 02:25:52;;;;;;;13.82;12.43;;;23.90;99.90;;;;;;5029049;28;20075;-59
2023/06/16 02:28:17;;;;;;;12.43;11.23;;;23.80;99.90;;;;;;5028455;28;20492;-59
2023/06/16 02:30:43;;;;;;;15.68;12.18;;;23.80;99.90;;;;;;5025761;28;20029;-59
2023/06/16 02:33:11;;;;;;;14.45;12.50;;;23.70;99.90;;;;;;5031821;28;20076;-59
2023/06/16 02:35:36;;;;;;;13.98;12.57;;;23.80;99.90;;;;;;5029857;28;20025;-59
2023/06/16 02:38:02;;;;;;;14.88;12.18;;;23.70;99.90;;;;;;5031816;28;20040;-59
2023/06/16 02:40:28;;;;;;;11.93;10.93;;;23.60;99.90;;;;;;5030052;28;20033;-59
2023/06/16 02:42:54;;;;;;;16.42;12.73;;;23.70;99.90;;;;;;5030650;28;20091;-59
2023/06/16 02:45:20;;;;;;;12.93;11.73;;;23.70;99.90;;;;;;5032076;28;20060;-59
2023/06/16 02:47:45;;;;;;;14.43;12.00;;;23.70;99.90;;;;;;5029845;28;20064;-59
2023/06/16 02:50:11;;;;;;;13.73;12.32;;;23.60;99.90;;;;;;5030218;28;20029;-59
2023/06/16 02:52:41;;;;;;;14.15;12.70;;;23.60;99.90;;;;;;5031256;28;20034;-59
2023/06/16 02:55:08;;;;;;;14.57;12.65;;;23.60;99.90;;;;;;5028306;28;20041;-59
2023/06/16 02:57:34;;;;;;;15.02;11.52;;;23.50;99.90;;;;;;5031838;28;20079;-59
2023/06/16 03:00:00;;;;;;;12.82;11.40;;;23.60;99.90;;;;;;5028035;28;20041;-59
2023/06/16 03:02:26;;;;;;;14.13;11.60;;;23.60;99.90;;;;;;5029627;28;20475;-59
2023/06/16 03:04:51;;;;;;;13.50;11.68;;;23.50;99.90;;;;;;5031137;28;20037;-59
2023/06/16 03:07:17;;;;;;;12.88;11.35;;;23.60;99.90;;;;;;5030980;28;20025;-59
2023/06/16 03:09:43;;;;;;;13.70;12.35;;;23.50;99.90;;;;;;5034912;28;20033;-60
2023/06/16 03:12:10;;;;;;;15.77;12.68;;;23.50;99.90;;;;;;5034620;28;20363;-59
2023/06/16 03:14:35;;;;;;;13.90;12.40;;;23.40;99.90;;;;;;5035092;28;20026;-59
2023/06/16 03:17:01;;;;;;;13.25;11.93;;;23.40;99.90;;;;;;5033460;28;20120;-59
2023/06/16 03:19:27;;;;;;;14.38;12.93;;;23.40;99.90;;;;;;5035029;28;20017;-59
2023/06/16 03:21:53;;;;;;;14.07;12.68;;;23.30;99.90;;;;;;5033563;28;20537;-59
2023/06/16 03:24:19;;;;;;;14.23;12.93;;;23.30;99.90;;;;;;5049721;28;20027;-59
2023/06/16 03:26:46;;;;;;;14.82;13.25;;;23.30;99.90;;;;;;5033971;28;20025;-59
2023/06/16 03:29:12;;;;;;;14.10;12.70;;;23.30;99.90;;;;;;5029354;28;20029;-59
2023/06/16 03:31:38;;;;;;;15.98;12.85;;;23.30;99.90;;;;;;5031726;28;20451;-59
2023/06/16 03:34:05;;;;;;;15.82;12.57;;;23.20;99.90;;;;;;5032985;28;20025;-59
2023/06/16 03:36:39;;;;;;;14.25;12.00;;;23.20;99.90;;;;;;5031563;28;20087;-59
2023/06/16 03:39:05;;;;;;;14.60;11.63;;;23.30;99.90;;;;;;5031678;28;20116;-59
2023/06/16 03:41:32;;;;;;;14.77;12.88;;;23.20;99.90;;;;;;5033849;28;20030;-59
2023/06/16 03:44:00;;;;;;;14.30;12.90;;;23.30;99.90;;;;;;5033089;28;20079;-59
2023/06/16 03:46:27;;;;;;;13.77;12.38;;;23.20;99.90;;;;;;5032233;28;20041;-59
2023/06/16 03:48:53;;;;;;;14.18;12.88;;;23.20;99.90;;;;;;5027295;28;20188;-59
2023/06/16 03:51:18;;;;;;;14.68;13.13;;;23.10;99.90;;;;;;5033560;28;20458;-59
2023/06/16 03:53:44;;;;;;;14.18;12.88;;;23.10;99.90;;;;;;5033092;28;20514;-59
2023/06/16 03:56:10;;;;;;;14.48;13.15;;;23.20;99.90;;;;;;5025432;28;20068;-59
2023/06/16 03:58:36;;;;;;;15.30;13.63;;;23.20;99.90;;;;;;5025531;28;20029;-59
2023/06/16 04:01:03;;;;;;;14.60;12.80;;;23.10;99.90;;;;;;5027398;28;20041;-59
2023/06/16 04:03:29;;;;;;;14.57;13.20;;;23.10;99.90;;;;;;5026977;28;20022;-59
2023/06/16 04:05:54;;;;;;;15.23;13.65;;;22.90;99.90;;;;;;5026844;28;20433;-59
2023/06/16 04:08:20;;;;;;;14.05;12.65;;;22.90;99.90;;;;;;5030706;28;20061;-60
2023/06/16 04:10:46;;;;;;;14.20;12.52;;;22.90;99.90;;;;;;5033020;28;20041;-59
2023/06/16 04:13:12;;;;;;;14.32;13.00;;;22.80;99.90;;;;;;5027658;28;20029;-59
2023/06/16 04:15:38;;;;;;;15.50;13.88;;;22.90;99.90;;;;;;5032162;28;20064;-59
2023/06/16 04:18:04;;;;;;;13.70;12.45;;;22.80;99.90;;;;;;5032267;28;20057;-59
2023/06/16 04:20:29;;;;;;;14.57;13.15;;;22.70;99.90;;;;;;5032647;28;20048;-59
2023/06/16 04:22:55;;;;;;;15.10;11.95;;;22.80;99.90;;;;;;5042006;28;20021;-59
2023/06/16 04:25:22;;;;;;;13.95;12.73;;;22.90;99.90;;;;;;5039424;28;20033;-59
2023/06/16 04:27:49;;;;;;;13.32;11.93;;;22.90;99.90;;;;;;5030822;28;20141;-59
2023/06/16 04:30:20;;;;;;;12.45;11.15;;;22.90;99.90;;;;;;5032437;28;20025;-59
2023/06/16 04:32:46;;;;;;;14.38;12.15;;;22.90;99.90;;;;;;5032635;28;20034;-59
2023/06/16 04:35:11;;;;;;;12.65;11.45;;;22.90;99.90;;;;;;5033120;28;20033;-59
2023/06/16 04:37:37;;;;;;;12.90;11.68;;;22.90;99.90;;;;;;5033332;28;20506;-59
2023/06/16 04:40:05;;;;;;;12.75;11.30;;;22.70;99.90;;;;;;5031433;28;20515;-59
2023/06/16 04:42:30;;;;;;;13.50;11.43;;;22.60;99.90;;;;;;5032503;28;20032;-59
2023/06/16 04:45:03;;;;;;;13.50;12.02;;;22.70;99.90;;;;;;5033726;28;20029;-59
2023/06/16 04:47:28;;;;;;;12.10;10.90;;;22.70;99.90;;;;;;5032775;28;20026;-59
2023/06/16 04:49:54;;;;;;;14.35;11.02;;;22.60;99.90;;;;;;5032160;28;20036;-59
2023/06/16 04:52:20;;;;;;;12.27;10.93;;;22.60;99.90;;;;;;5031830;28;20108;-59
2023/06/16 04:54:46;;;;;;;12.30;10.73;;;22.60;99.90;;;;;;5032312;28;20037;-59
2023/06/16 04:57:12;;;;;;;11.25;9.98;;;22.60;99.90;;;;;;5033913;28;20422;-59
2023/06/16 04:59:37;;;;;;;11.85;10.60;;;22.70;99.90;;;;;;5030208;28;20110;-59
2023/06/16 05:02:03;;;;;;;11.57;10.15;;;22.70;99.90;;;;;;5032568;28;20061;-59
2023/06/16 05:04:29;;;;;;;10.98;9.88;;;22.60;99.90;;;;;;5031282;28;20057;-59
2023/06/16 05:06:54;;;;;;;10.70;9.55;;;22.60;99.90;;;;;;5033655;28;20028;-59
2023/06/16 05:09:23;;;;;;;9.50;8.68;;;22.60;99.90;;;;;;5031677;28;20116;-59
2023/06/16 05:11:48;;;;;;;8.90;8.10;;;22.50;99.90;;;;;;5032051;28;20038;-59
2023/06/16 05:14:14;;;;;;;8.88;8.07;;;22.50;99.90;;;;;;5032877;28;20033;-59
2023/06/16 05:16:40;;;;;;;9.85;8.30;;;22.60;99.90;;;;;;5032157;28;20464;-59
2023/06/16 05:19:06;;;;;;;9.38;7.55;;;22.40;99.90;;;;;;5033436;28;20577;-59
2023/06/16 05:21:32;;;;;;;8.48;7.68;;;22.40;99.90;;;;;;5032197;28;20028;-59
2023/06/16 05:23:57;;;;;;;8.02;6.78;;;22.50;99.90;;;;;;5047328;28;20388;-60
2023/06/16 05:27:25;;;;;;;7.13;6.10;;;22.50;99.90;;;;;;5031419;28;20541;-59
2023/06/16 05:29:51;;;;;;;7.47;5.97;;;22.60;99.90;;;;;;5026185;28;20037;-59
2023/06/16 05:32:19;;;;;;;8.32;7.15;;;22.60;99.90;;;;;;5030771;28;20036;-59
2023/06/16 05:34:46;;;;;;;7.70;5.95;;;22.50;99.90;;;;;;5032420;28;20116;-60
2023/06/16 05:37:15;;;;;;;13.40;6.57;;;22.60;99.90;;;;;;5032152;28;20041;-59
2023/06/16 05:39:43;;;;;;;6.85;6.15;;;22.60;99.90;;;;;;5030660;28;20125;-59
2023/06/16 05:42:10;;;;;;;8.57;6.53;;;22.60;99.90;;;;;;5032940;28;20029;-59
2023/06/16 05:44:36;;;;;;;8.15;7.35;;;22.60;99.90;;;;;;5032250;28;20021;-59
2023/06/16 05:47:02;;;;;;;9.88;6.40;;;22.60;99.90;;;;;;5029358;28;20382;-60
2023/06/16 05:49:28;;;;;;;7.15;6.47;;;22.70;99.90;;;;;;5032922;28;20037;-59
2023/06/16 05:51:56;;;;;;;8.27;7.43;;;22.60;99.90;;;;;;5031905;28;20052;-59
2023/06/16 05:54:22;;;;;;;7.90;6.43;;;22.70;99.90;;;;;;5032461;28;20049;-60
2023/06/16 05:56:48;;;;;;;8.50;6.65;;;22.70;99.90;;;;;;5031725;28;20398;-59
2023/06/16 05:59:13;;;;;;;7.38;6.65;;;22.80;99.90;;;;;;5018012;28;20029;-59
2023/06/16 06:01:42;;;;;;;8.70;6.55;;;22.80;99.90;;;;;;5031272;28;20433;-59
2023/06/16 06:04:10;;;;;;;9.10;6.82;;;22.70;99.90;;;;;;5031280;28;20505;-60
2023/06/16 06:06:38;;;;;;;9.18;7.10;;;22.70;99.90;;;;;;5031343;28;20475;-60
2023/06/16 06:09:29;;;;;;;8.27;7.47;;;22.80;99.90;;;;;;5031527;28;20041;-61
2023/06/16 06:11:55;;;;;;;7.93;7.13;;;22.90;99.90;;;;;;5031096;28;20029;-61
2023/06/16 06:14:21;;;;;;;8.07;7.20;;;22.90;99.90;;;;;;5032392;28;20083;-61
2023/06/16 06:16:46;;;;;;;9.60;7.63;;;22.90;99.90;;;;;;5031491;28;20041;-61
2023/06/16 06:19:12;;;;;;;10.50;7.05;;;23.00;99.90;;;;;;5031049;28;20030;-58
2023/06/16 06:21:39;;;;;;;10.75;8.30;;;23.10;99.90;;;;;;5032216;28;20029;-60
2023/06/16 06:24:05;;;;;;;11.88;7.88;;;23.10;99.90;;;;;;5045509;28;20068;-59
2023/06/16 06:26:31;;;;;;;9.65;8.10;;;23.20;99.90;;;;;;5031087;28;20067;-60
2023/06/16 06:28:56;;;;;;;8.75;7.82;;;23.20;99.90;;;;;;5030590;28;20427;-60
2023/06/16 06:31:22;;;;;;;8.70;7.85;;;23.10;99.90;;;;;;5031297;28;20618;-60
2023/06/16 06:33:48;;;;;;;10.48;7.88;;;23.10;99.90;;;;;;5032018;28;20030;-62
2023/06/16 06:36:25;;;;;;;10.80;7.05;;;23.10;99.90;;;;;;5030736;28;20053;-61
2023/06/16 06:38:51;;;;;;;8.63;7.65;;;23.20;99.90;;;;;;5033347;28;20025;-62
2023/06/16 06:41:17;;;;;;;8.68;7.93;;;23.30;99.90;;;;;;5031425;28;20371;-61
2023/06/16 06:43:43;;;;;;;8.68;7.95;;;23.30;99.90;;;;;;5035763;28;20072;-62
2023/06/16 06:46:08;;;;;;;8.18;7.43;;;23.40;99.90;;;;;;5035543;28;20029;-60
2023/06/16 06:48:34;;;;;;;7.70;6.90;;;23.50;99.90;;;;;;5037065;28;20447;-63
2023/06/16 06:51:00;;;;;;;8.70;7.38;;;23.50;99.90;;;;;;5035202;28;20104;-61
2023/06/16 06:53:25;;;;;;;14.82;8.30;;;23.50;99.90;;;;;;5034620;28;20103;-61
2023/06/16 06:55:51;;;;;;;9.60;7.57;;;23.50;99.90;;;;;;5036186;28;20084;-61
2023/06/16 06:58:17;;;;;;;12.40;7.93;;;23.60;99.90;;;;;;5035592;28;20052;-61
2023/06/16 07:00:43;;;;;;;10.52;8.00;;;23.50;99.90;;;;;;5036127;28;20467;-60
2023/06/16 07:03:08;;;;;;;8.63;7.70;;;23.60;99.90;;;;;;5030462;28;20026;-60
2023/06/16 07:05:34;;;;;;;9.02;8.10;;;23.60;99.90;;;;;;5034433;28;20026;-64
2023/06/16 07:08:01;;;;;;;9.95;8.95;;;23.60;99.90;;;;;;5035255;28;20032;-64
2023/06/16 07:10:29;;;;;;;9.00;7.97;;;23.60;99.90;;;;;;5034713;28;20372;-62
2023/06/16 07:12:55;;;;;;;9.30;8.10;;;23.60;99.90;;;;;;5027305;28;20124;-62
2023/06/16 07:15:21;;;;;;;11.57;8.35;;;23.70;99.90;;;;;;5035406;28;20025;-62
2023/06/16 07:17:50;;;;;;;8.32;7.32;;;23.70;99.90;;;;;;5035211;28;20041;-65
2023/06/16 07:20:16;;;;;;;10.40;8.57;;;23.80;99.90;;;;;;5036434;28;20474;-65
2023/06/16 07:22:45;;;;;;;9.48;8.60;;;23.90;99.90;;;;;;5041782;28;20024;-60
2023/06/16 07:25:12;;;;;;;8.73;7.82;;;23.90;99.90;;;;;;5042182;28;20123;-59
2023/06/16 07:27:38;;;;;;;8.05;7.25;;;23.90;99.90;;;;;;5034726;28;20480;-59
2023/06/16 07:30:05;;;;;;;8.68;7.28;;;23.90;99.90;;;;;;5035007;28;20061;-59
2023/06/16 07:32:31;;;;;;;11.93;7.05;;;24.00;99.90;;;;;;5036333;28;20029;-60
2023/06/16 07:34:57;;;;;;;7.80;7.05;;;24.10;99.90;;;;;;5035385;28;20156;-60
2023/06/16 07:37:23;;;;;;;10.02;7.57;;;24.10;99.90;;;;;;5035135;28;20049;-59
2023/06/16 07:39:48;;;;;;;8.32;7.47;;;24.10;99.90;;;;;;5034286;28;20029;-61
2023/06/16 07:42:15;;;;;;;10.60;7.20;;;24.10;99.90;;;;;;5035894;28;20018;-60
2023/06/16 07:44:41;;;;;;;7.35;6.65;;;24.20;99.90;;;;;;5034148;28;20475;-62
2023/06/16 07:47:10;;;;;;;10.48;8.35;;;24.20;99.90;;;;;;5035294;28;20076;-59
2023/06/16 07:49:35;;;;;;;9.00;7.15;;;24.10;99.90;;;;;;5035210;28;20026;-60
2023/06/16 07:52:01;;;;;;;9.23;6.72;;;24.20;99.90;;;;;;5035795;28;20048;-60
2023/06/16 07:54:27;;;;;;;9.90;7.18;;;24.30;99.90;;;;;;5032403;28;20053;-59
2023/06/16 07:56:53;;;;;;;9.50;7.18;;;24.40;99.90;;;;;;5033288;28;20029;-59
2023/06/16 07:59:19;;;;;;;10.85;7.68;;;24.50;99.90;;;;;;5034764;28;20095;-60
2023/06/16 08:01:51;;;;;;;6.95;6.35;;;24.50;99.90;;;;;;5035036;28;20474;-60
2023/06/16 08:04:18;;;;;;;8.05;7.20;;;24.50;99.90;;;;;;5017922;28;20025;-62
2023/06/16 08:06:44;;;;;;;7.68;6.85;;;24.60;99.90;;;;;;5033485;28;20029;-64
2023/06/16 08:09:10;;;;;;;6.90;6.20;;;24.60;99.90;;;;;;5034242;28;20475;-63
2023/06/16 08:11:36;;;;;;;8.50;7.57;;;24.70;99.90;;;;;;5030755;28;20042;-63
2023/06/16 08:14:02;;;;;;;8.48;6.22;;;24.70;99.90;;;;;;5035477;28;20025;-62
2023/06/16 08:16:28;;;;;;;6.68;5.95;;;24.80;99.90;;;;;;5034067;28;20435;-62
2023/06/16 08:18:57;;;;;;;9.30;6.47;;;24.80;99.90;;;;;;5035671;28;20115;-61
2023/06/16 08:21:23;;;;;;;7.22;6.60;;;24.80;99.90;;;;;;5032800;28;20121;-59
2023/06/16 08:23:52;;;;;;;8.57;6.32;;;24.80;99.90;;;;;;5032487;28;20108;-62
2023/06/16 08:26:20;;;;;;;7.38;5.72;;;24.90;99.90;;;;;;5034809;28;20021;-61
2023/06/16 08:28:46;;;;;;;8.07;6.78;;;25.00;99.90;;;;;;5030734;28;20510;-61
2023/06/16 08:31:12;;;;;;;8.85;6.10;;;25.10;99.90;;;;;;5031800;28;20068;-62
2023/06/16 08:33:37;;;;;;;8.07;6.30;;;25.10;99.90;;;;;;5033205;28;20025;-59
2023/06/16 08:36:03;;;;;;;9.00;7.10;;;25.10;99.90;;;;;;5026494;28;20018;-59
2023/06/16 08:38:29;;;;;;;9.13;6.70;;;25.10;99.90;;;;;;5026482;28;20032;-61
2023/06/16 08:40:55;;;;;;;7.75;6.65;;;25.20;99.90;;;;;;5035167;28;20107;-60
2023/06/16 08:43:22;;;;;;;8.60;6.32;;;25.10;99.90;;;;;;5031208;28;20097;-58
2023/06/16 08:45:50;;;;;;;9.05;6.80;;;25.20;99.90;;;;;;5032724;28;20030;-61
2023/06/16 08:48:16;;;;;;;7.82;6.72;;;25.30;99.90;;;;;;5034732;28;20028;-61
2023/06/16 08:50:42;;;;;;;8.63;7.55;;;25.30;99.90;;;;;;5032744;28;20037;-62
2023/06/16 08:53:10;;;;;;;11.02;7.72;;;25.40;99.90;;;;;;5032163;28;20575;-62
2023/06/16 08:55:39;;;;;;;10.90;8.13;;;25.30;99.90;;;;;;5034963;28;20025;-63
2023/06/16 08:58:08;;;;;;;8.30;6.70;;;25.40;99.90;;;;;;5032944;28;20065;-64
2023/06/16 09:00:34;;;;;;;10.40;7.22;;;25.40;99.90;;;;;;5033289;28;20025;-64
2023/06/16 09:03:05;;;;;;;7.47;6.82;;;25.40;99.90;;;;;;5030995;28;20033;-64
2023/06/16 09:05:31;;;;;;;7.25;6.47;;;25.50;99.90;;;;;;5033636;28;20041;-65
2023/06/16 09:07:57;;;;;;;7.88;7.18;;;25.60;99.90;;;;;;5033400;28;20064;-66
2023/06/16 09:10:22;;;;;;;12.05;7.93;;;25.60;99.90;;;;;;5032369;28;20455;-70
2023/06/16 09:12:52;;;;;;;9.88;8.60;;;25.60;99.90;;;;;;5034004;28;20037;-71
2023/06/16 09:15:19;;;;;;;9.68;7.10;;;25.60;99.90;;;;;;5034522;28;20426;-72
2023/06/16 09:17:47;;;;;;;10.50;8.45;;;25.70;99.90;;;;;;5031778;28;20109;-62
2023/06/16 09:20:17;;;;;;;13.13;7.13;;;25.70;99.90;;;;;;5031731;28;20109;-61
2023/06/16 09:22:59;;;;;;;9.77;8.82;;;25.70;99.90;;;;;;5020608;28;20035;-61
2023/06/16 09:25:25;;;;;;;10.13;7.10;;;25.70;99.90;;;;;;5031914;28;20121;-64
2023/06/16 09:27:51;;;;;;;9.02;8.07;;;25.80;99.90;;;;;;5034252;28;20112;-64
2023/06/16 09:30:20;;;;;;;9.80;8.80;;;26.00;99.90;;;;;;5031477;28;20076;-67
2023/06/16 09:32:47;;;;;;;6.70;5.97;;;26.00;99.90;;;;;;5033985;28;20033;-64
2023/06/16 09:35:27;;;;;;;8.48;5.97;;;26.10;99.90;;;;;;5033054;28;20091;-67
2023/06/16 09:37:56;;;;;;;7.97;6.85;;;26.20;99.90;;;;;;5032155;28;20044;-75
2023/06/16 09:40:28;;;;;;;11.38;7.35;;;26.10;99.90;;;;;;5032515;28;20033;-74
2023/06/16 09:43:04;;;;;;;10.80;8.02;;;26.20;99.90;;;;;;5033719;28;20056;-66
2023/06/16 09:45:31;;;;;;;11.70;7.32;;;26.30;99.90;;;;;;5027691;28;20010;-70
2023/06/16 09:47:57;;;;;;;7.32;6.63;;;26.30;99.90;;;;;;5030709;28;20463;-69
2023/06/16 09:50:26;;;;;;;12.98;6.38;;;26.30;99.90;;;;;;5027826;28;20037;-69
2023/06/16 09:52:55;;;;;;;9.50;7.13;;;26.40;99.90;;;;;;5033272;28;20179;-71
2023/06/16 09:55:26;;;;;;;10.20;7.47;;;26.40;99.90;;;;;;5032750;28;20474;-63
2023/06/16 09:57:53;;;;;;;7.28;5.97;;;26.40;99.90;;;;;;5033722;28;20387;-64
2023/06/16 10:00:19;;;;;;;10.82;6.35;;;26.70;99.90;;;;;;5026445;28;20017;-66
2023/06/16 10:02:50;;;;;;;9.23;6.15;;;26.80;99.90;;;;;;5025205;28;20042;-66
2023/06/16 10:05:19;;;;;;;8.27;7.45;;;27.00;99.90;;;;;;5028179;28;20426;-68
2023/06/16 10:08:10;;;;;;;8.18;7.30;;;27.00;99.90;;;;;;5033405;28;20100;-68
2023/06/16 10:10:41;;;;;;;6.82;5.95;;;26.80;99.90;;;;;;5031669;28;20025;-67
2023/06/16 10:13:10;;;;;;;6.75;6.15;;;27.00;99.90;;;;;;5026324;28;20046;-66
2023/06/16 10:15:38;;;;;;;7.85;5.82;;;27.30;99.90;;;;;;5029016;28;20112;-71
2023/06/16 10:18:07;;;;;;;6.28;5.78;;;27.40;99.90;;;;;;5033099;28;20116;-71
2023/06/16 10:20:34;;;;;;;8.52;5.45;;;27.50;99.90;;;;;;5029888;28;20426;-73
2023/06/16 10:23:00;;;;;;;7.40;5.63;;;27.60;99.90;;;;;;5032882;28;20021;-71
2023/06/16 10:25:28;;;;;;;8.50;5.50;;;27.60;99.90;;;;;;5030125;28;20558;-66
2023/06/16 10:27:55;;;;;;;7.32;6.53;;;27.70;99.90;;;;;;5033075;28;20084;-66
2023/06/16 10:30:23;;;;;;;8.88;6.22;;;27.90;99.90;;;;;;5031393;28;20037;-63
2023/06/16 10:32:55;;;;;;;8.63;5.13;;;28.00;99.90;;;;;;5032697;28;20026;-64
2023/06/16 10:35:22;;;;;;;6.80;6.18;;;28.20;99.90;;;;;;5031092;28;20357;-64
2023/06/16 10:37:55;;;;;;;6.25;5.63;;;28.00;99.90;;;;;;5024275;28;20026;-62
2023/06/16 10:40:24;;;;;;;7.03;6.03;;;28.00;99.90;;;;;;5029151;28;20029;-64
2023/06/16 10:42:57;;;;;;;7.25;6.45;;;28.00;99.90;;;;;;5032879;28;20063;-62
2023/06/16 10:45:31;;;;;;;6.90;6.30;;;28.30;99.90;;;;;;5030830;28;20025;-66
2023/06/16 10:48:11;;;;;;;7.25;5.85;;;28.20;99.90;;;;;;5033201;28;20099;-71
2023/06/16 10:50:43;;;;;;;5.18;4.82;;;28.50;99.90;;;;;;5030497;28;20009;-65
2023/06/16 10:53:12;;;;;;;5.95;5.10;;;28.70;99.90;;;;;;5030509;28;20471;-69
2023/06/16 10:55:41;;;;;;;6.00;5.30;;;29.50;99.90;;;;;;5031612;28;20033;-70
2023/06/16 10:58:16;;;;;;;5.70;5.20;;;29.50;99.90;;;;;;5031482;28;20120;-72
2023/06/16 11:01:21;;;;;;;7.35;5.30;;;29.30;99.90;;;;;;5022322;28;20034;-62
2023/06/16 11:03:51;;;;;;;6.82;5.53;;;29.10;99.90;;;;;;5031154;28;20037;-64
2023/06/16 11:06:17;;;;;;;5.97;5.47;;;29.40;99.90;;;;;;5032846;28;20018;-63
2023/06/16 11:08:54;;;;;;;6.30;5.70;;;29.60;99.90;;;;;;5031692;28;20030;-69
2023/06/16 11:11:20;;;;;;;5.53;5.10;;;29.50;99.90;;;;;;5030525;28;20037;-63
2023/06/16 11:13:46;;;;;;;6.20;5.70;;;29.50;99.90;;;;;;5029340;28;20458;-69
2023/06/16 11:16:12;;;;;;;6.93;6.30;;;29.80;99.90;;;;;;5030853;28;20079;-66
2023/06/16 11:18:38;;;;;;;5.55;5.10;;;30.80;99.90;;;;;;5030694;28;20394;-66
2023/06/16 11:21:08;;;;;;;6.65;5.80;;;33.60;99.90;;;;;;5029781;28;20024;-66
2023/06/16 11:23:35;;;;;;;7.55;5.95;;;36.00;99.90;;;;;;5029515;28;20033;-66
2023/06/16 11:26:26;;;;;;;5.53;4.55;;;36.90;99.90;;;;;;5028949;28;20099;-66
2023/06/16 11:28:52;;;;;;;6.70;6.00;;;37.90;99.90;;;;;;5032382;28;20167;-71
2023/06/16 11:31:20;;;;;;;6.55;5.80;;;40.20;99.90;;;;;;5034908;28;20453;-60
2023/06/16 11:33:47;;;;;;;7.57;6.97;;;41.10;99.90;;;;;;5031011;28;20409;-61
2023/06/16 11:36:23;;;;;;;6.93;5.90;;;40.80;99.90;;;;;;5034354;28;20021;-66
2023/06/16 11:38:55;;;;;;;6.75;6.03;;;42.00;99.90;;;;;;5034458;28;20026;-62
2023/06/16 11:41:22;;;;;;;6.22;5.72;;;42.30;99.90;;;;;;5035772;28;20028;-64
2023/06/16 11:43:50;;;;;;;6.57;5.95;;;42.50;99.90;;;;;;5033586;28;20064;-65
2023/06/16 11:46:24;;;;;;;6.50;5.85;;;41.20;99.90;;;;;;5032943;28;20029;-67
2023/06/16 11:48:51;;;;;;;6.78;6.13;;;42.10;99.90;;;;;;5032311;28;20041;-68
2023/06/16 11:51:17;;;;;;;6.43;5.90;;;41.70;99.90;;;;;;5028995;28;20029;-66
2023/06/16 11:53:53;;;;;;;6.03;5.53;;;40.90;99.90;;;;;;5026678;28;20049;-66
2023/06/16 11:56:23;;;;;;;10.52;5.93;;;39.60;99.90;;;;;;5031961;28;20048;-71
2023/06/16 11:58:48;;;;;;;6.07;5.57;;;38.50;99.90;;;;;;5032722;28;20079;-64
2023/06/16 12:01:16;;;;;;;6.53;5.93;;;39.30;99.90;;;;;;5032509;28;20475;-62
2023/06/16 12:03:45;;;;;;;5.70;5.20;;;39.40;99.90;;;;;;5032651;28;20505;-63
2023/06/16 12:06:12;;;;;;;6.78;5.03;;;38.10;99.90;;;;;;5032233;28;20048;-59
2023/06/16 12:08:46;;;;;;;6.30;5.32;;;36.60;99.90;;;;;;5033998;28;20374;-59
2023/06/16 12:11:16;;;;;;;5.55;5.15;;;35.70;99.90;;;;;;5025312;28;20029;-59
2023/06/16 12:13:42;;;;;;;6.10;5.65;;;35.40;99.90;;;;;;5034962;28;20033;-59
2023/06/16 12:16:11;;;;;;;5.95;5.50;;;36.40;99.90;;;;;;5034148;28;20056;-59
2023/06/16 12:18:37;;;;;;;7.10;5.43;;;38.00;99.90;;;;;;5035478;28;20032;-59
2023/06/16 12:21:32;;;;;;;6.93;6.18;;;38.10;99.90;;;;;;5034496;28;20108;-59
2023/06/16 12:23:59;;;;;;;6.07;5.47;;;37.10;99.90;;;;;;5025633;28;20503;-59
2023/06/16 12:26:28;;;;;;;5.82;5.43;;;36.50;99.90;;;;;;5034324;28;20100;-59
2023/06/16 12:28:54;;;;;;;5.72;5.32;;;36.80;99.90;;;;;;5022114;28;20100;-59
2023/06/16 12:31:21;;;;;;;7.00;5.90;;;36.80;99.90;;;;;;5019044;28;20025;-59
2023/06/16 12:33:52;;;;;;;5.70;5.30;;;37.00;99.90;;;;;;5034044;28;20033;-59
2023/06/16 12:36:18;;;;;;;6.22;5.82;;;35.90;99.90;;;;;;5029961;28;20029;-59
2023/06/16 12:38:46;;;;;;;7.47;5.70;;;35.80;99.90;;;;;;5033911;28;20033;-59
2023/06/16 12:41:16;;;;;;;6.50;5.85;;;35.80;99.90;;;;;;5032230;28;20032;-59
2023/06/16 12:43:50;;;;;;;5.78;5.28;;;35.60;99.90;;;;;;5033094;28;20041;-59